createdAt,value
2023-10-18T00:00:34.795Z,24.13
2023-10-18T00:03:05.753Z,24.09
2023-10-18T00:05:33.086Z,24.06
2023-10-18T00:08:00.728Z,24.07
2023-10-18T00:10:32.306Z,24.06
2023-10-18T00:13:00.630Z,24.05
2023-10-18T00:15:30.923Z,24.05
2023-10-18T00:18:01.372Z,24.04
2023-10-18T00:20:29.193Z,24.04
2023-10-18T00:22:58.860Z,24.04
2023-10-18T00:25:26.159Z,24.04
2023-10-18T00:27:56.569Z,24.04
2023-10-18T00:30:23.913Z,24.06
2023-10-18T00:32:54.018Z,24.03
2023-10-18T00:35:30.483Z,24.03
2023-10-18T00:37:57.701Z,24.00
2023-10-18T00:40:31.908Z,23.98
2023-10-18T00:43:28.507Z,23.99
2023-10-18T00:45:59.237Z,23.99
2023-10-18T00:48:29.907Z,23.98
2023-10-18T00:50:59.927Z,24.00
2023-10-18T00:53:34.839Z,23.99
2023-10-18T00:56:02.752Z,23.99
2023-10-18T00:58:36.284Z,24.00
2023-10-18T01:01:13.637Z,24.00
2023-10-18T01:03:52.954Z,24.01
2023-10-18T01:06:31.629Z,24.01
2023-10-18T01:09:03.356Z,23.99
2023-10-18T01:11:32.689Z,23.98
2023-10-18T01:14:02.782Z,23.97
2023-10-18T01:16:36.588Z,23.95
2023-10-18T01:19:10.225Z,23.95
2023-10-18T01:21:47.576Z,23.97
2023-10-18T01:24:20.869Z,23.96
2023-10-18T01:26:48.364Z,23.97
2023-10-18T01:29:18.502Z,23.96
2023-10-18T01:31:50.930Z,23.94
2023-10-18T01:34:18.261Z,23.93
2023-10-18T01:36:45.528Z,23.93
2023-10-18T01:39:20.433Z,23.94
2023-10-18T01:41:54.752Z,23.95
2023-10-18T01:44:35.201Z,23.95
2023-10-18T01:47:10.529Z,23.93
2023-10-18T01:49:48.061Z,23.95
2023-10-18T01:52:24.274Z,23.93
2023-10-18T01:54:53.779Z,23.93
2023-10-18T01:57:21.528Z,23.92
2023-10-18T01:59:51.125Z,23.92
2023-10-18T02:02:19.268Z,23.92
2023-10-18T02:04:53.722Z,23.92
2023-10-18T02:07:23.408Z,23.92
2023-10-18T02:09:54.174Z,23.94
2023-10-18T02:12:25.185Z,23.92
2023-10-18T02:14:52.875Z,23.92
2023-10-18T02:17:20.619Z,23.90
2023-10-18T02:19:48.175Z,23.89
2023-10-18T02:22:17.741Z,23.90
2023-10-18T02:24:45.604Z,23.90
2023-10-18T02:27:21.147Z,23.89
2023-10-18T02:29:48.780Z,23.90
2023-10-18T02:32:33.191Z,23.89
2023-10-18T02:35:00.486Z,23.83
2023-10-18T02:37:28.119Z,23.77
2023-10-18T02:40:11.548Z,23.77
2023-10-18T02:42:39.763Z,23.76
2023-10-18T02:45:15.260Z,23.76
2023-10-18T02:47:43.111Z,23.76
2023-10-18T02:50:10.338Z,23.77
2023-10-18T02:52:37.572Z,23.77
2023-10-18T02:55:10.313Z,23.77
2023-10-18T02:57:37.682Z,23.79
2023-10-18T03:00:12.216Z,23.79
2023-10-18T03:02:42.347Z,23.79
2023-10-18T03:05:11.288Z,23.79
2023-10-18T03:07:38.672Z,23.79
2023-10-18T03:10:13.529Z,23.79
2023-10-18T03:12:45.831Z,23.77
2023-10-18T03:15:19.066Z,23.75
2023-10-18T03:17:50.522Z,23.72
2023-10-18T03:20:21.743Z,23.68
2023-10-18T03:22:50.475Z,23.66
2023-10-18T03:25:18.534Z,23.65
2023-10-18T03:27:58.939Z,23.61
2023-10-18T03:30:42.089Z,23.61
2023-10-18T03:33:09.399Z,23.61
2023-10-18T03:35:41.186Z,23.61
2023-10-18T03:38:18.218Z,23.60
2023-10-18T03:40:50.129Z,23.57
2023-10-18T03:43:17.993Z,23.58
2023-10-18T03:46:05.110Z,23.58
2023-10-18T03:48:41.414Z,23.59
2023-10-18T03:51:09.356Z,23.60
2023-10-18T03:53:38.762Z,23.61
2023-10-18T03:56:07.983Z,23.61
2023-10-18T03:58:37.074Z,23.60
2023-10-18T04:01:06.674Z,23.61
2023-10-18T04:03:34.108Z,23.59
2023-10-18T04:06:10.836Z,23.61
2023-10-18T04:08:38.191Z,23.61
2023-10-18T04:11:06.099Z,23.60
2023-10-18T04:13:33.485Z,23.60
2023-10-18T04:16:12.947Z,23.60
2023-10-18T04:18:43.686Z,23.61
2023-10-18T04:21:17.266Z,23.60
2023-10-18T04:23:47.917Z,23.61
2023-10-18T04:26:20.534Z,23.61
2023-10-18T04:28:50.419Z,23.60
2023-10-18T04:31:23.043Z,23.59
2023-10-18T04:33:51.992Z,23.60
2023-10-18T04:36:22.259Z,23.60
2023-10-18T04:38:51.147Z,23.60
2023-10-18T04:41:26.051Z,23.60
2023-10-18T04:44:06.967Z,23.61
2023-10-18T04:46:38.201Z,23.60
2023-10-18T04:49:11.902Z,23.59
2023-10-18T04:51:41.808Z,23.60
2023-10-18T04:54:25.106Z,23.60
2023-10-18T04:56:57.972Z,23.61
2023-10-18T04:59:37.916Z,23.59
2023-10-18T05:02:06.691Z,23.59
2023-10-18T05:04:34.638Z,23.59
2023-10-18T05:07:27.053Z,23.58
2023-10-18T05:09:58.221Z,23.56
2023-10-18T05:12:25.329Z,23.54
2023-10-18T05:14:54.528Z,23.54
2023-10-18T05:17:28.048Z,23.53
2023-10-18T05:19:58.531Z,23.54
2023-10-18T05:22:26.899Z,23.54
2023-10-18T05:25:23.484Z,23.53
2023-10-18T05:28:01.521Z,23.54
2023-10-18T05:30:50.052Z,23.52
2023-10-18T05:33:31.089Z,23.53
2023-10-18T05:36:21.346Z,23.53
2023-10-18T05:38:48.522Z,23.53
2023-10-18T05:41:29.792Z,23.53
2023-10-18T05:44:00.538Z,23.53
2023-10-18T05:46:34.671Z,23.56
2023-10-18T05:49:02.620Z,23.54
2023-10-18T05:51:39.055Z,23.55
2023-10-18T05:54:07.145Z,23.55
2023-10-18T05:56:34.584Z,23.54
2023-10-18T05:59:22.351Z,23.53
2023-10-18T06:02:00.312Z,23.51
2023-10-18T06:04:28.625Z,23.50
2023-10-18T06:07:10.816Z,23.50
2023-10-18T06:09:48.715Z,23.48
2023-10-18T06:12:23.259Z,23.44
2023-10-18T06:14:53.481Z,23.40
2023-10-18T06:17:44.055Z,23.39
2023-10-18T06:20:30.054Z,23.39
2023-10-18T06:23:10.696Z,23.39
2023-10-18T06:25:39.965Z,23.40
2023-10-18T06:28:08.902Z,23.41
2023-10-18T06:30:43.004Z,23.42
2023-10-18T12:12:34.108Z,28.85
2023-10-18T12:15:07.945Z,28.71
2023-10-18T12:17:35.317Z,28.76
2023-10-18T12:20:02.966Z,28.78
2023-10-18T12:22:30.087Z,28.79
2023-10-18T12:24:57.455Z,28.86
2023-10-18T12:27:36.784Z,28.94
2023-10-18T12:30:36.614Z,28.97
2023-10-18T12:33:07.438Z,28.97
2023-10-18T12:35:35.897Z,28.96
2023-10-18T12:38:14.249Z,28.97
2023-10-18T12:40:52.498Z,28.96
2023-10-18T12:43:21.254Z,28.94
2023-10-18T12:45:51.743Z,28.90
2023-10-18T12:48:25.769Z,28.88
2023-10-18T12:50:53.914Z,28.86
2023-10-18T12:53:28.091Z,28.84
2023-10-18T12:56:21.595Z,28.79
2023-10-18T12:59:20.518Z,28.77
2023-10-18T13:01:48.311Z,28.69
2023-10-18T13:04:21.289Z,28.67
2023-10-18T13:06:49.158Z,28.72
2023-10-18T13:09:17.821Z,28.76
2023-10-18T13:11:54.205Z,28.81
2023-10-18T13:14:27.657Z,28.80
2023-10-18T13:16:55.514Z,28.75
2023-10-18T13:19:24.630Z,28.72
2023-10-18T13:21:51.998Z,28.77
2023-10-18T13:24:19.335Z,28.75
2023-10-18T13:26:47.218Z,28.77
2023-10-18T13:29:20.668Z,28.77
2023-10-18T13:31:50.557Z,28.79
2023-10-18T13:34:21.219Z,28.81
2023-10-18T13:36:49.622Z,28.85
2023-10-18T13:39:20.614Z,28.83
2023-10-18T13:41:48.351Z,28.83
2023-10-18T13:44:16.182Z,28.83
2023-10-18T13:46:55.454Z,28.79
2023-10-18T13:49:30.745Z,28.71
2023-10-18T13:51:58.017Z,28.69
2023-10-18T13:54:25.740Z,28.66
2023-10-18T13:56:52.881Z,28.69
2023-10-18T13:59:22.266Z,28.70
2023-10-18T14:01:50.950Z,28.67
2023-10-18T14:04:26.459Z,28.67
2023-10-18T14:06:59.674Z,28.67
2023-10-18T14:09:27.200Z,28.62
2023-10-18T14:11:54.513Z,28.54
2023-10-18T14:14:21.792Z,28.53
2023-10-18T14:16:50.139Z,28.52
2023-10-18T14:19:27.592Z,28.47
2023-10-18T14:21:54.619Z,28.44
2023-10-18T14:24:26.438Z,28.43
2023-10-18T14:26:53.569Z,28.41
2023-10-18T14:29:24.441Z,28.39
2023-10-18T14:31:51.645Z,28.40
2023-10-18T14:34:18.739Z,28.40
2023-10-18T14:36:52.292Z,28.39
2023-10-18T14:41:53.495Z,28.45
2023-10-18T14:44:20.644Z,28.44
2023-10-18T14:46:47.711Z,28.46
2023-10-18T14:49:15.452Z,28.40
2023-10-18T14:51:45.975Z,28.40
2023-10-18T14:54:15.971Z,28.36
2023-10-18T14:56:44.530Z,28.33
2023-10-18T14:59:12.777Z,28.35
2023-10-18T15:01:41.060Z,28.38
2023-10-18T15:04:08.577Z,28.33
2023-10-18T15:06:39.216Z,28.29
2023-10-18T15:09:07.929Z,28.27
2023-10-18T15:11:35.217Z,28.27
2023-10-18T15:14:02.460Z,28.25
2023-10-18T15:16:29.595Z,28.26
2023-10-18T15:18:56.880Z,28.21
2023-10-18T15:21:24.259Z,28.20
2023-10-18T15:23:51.310Z,28.20
2023-10-18T15:26:18.853Z,28.15
2023-10-18T15:28:47.565Z,28.13
2023-10-18T15:31:16.328Z,28.11
2023-10-18T15:33:45.707Z,28.09
2023-10-18T15:36:19.445Z,28.08
2023-10-18T15:38:49.929Z,28.07
2023-10-18T15:41:23.850Z,28.03
2023-10-18T15:43:53.075Z,28.01
2023-10-18T15:46:28.567Z,27.97
2023-10-18T15:48:58.954Z,27.95
2023-10-18T15:51:28.141Z,27.87
2023-10-18T15:53:57.856Z,27.87
2023-10-18T15:56:27.680Z,27.83
2023-10-18T15:58:56.381Z,27.84
2023-10-18T16:01:24.306Z,27.85
2023-10-18T16:03:52.471Z,27.81
2023-10-18T16:06:21.114Z,27.76
2023-10-18T16:08:54.702Z,27.71
2023-10-18T16:11:25.483Z,27.65
2023-10-18T16:13:55.555Z,27.61
2023-10-18T16:16:26.198Z,27.61
2023-10-18T16:18:57.107Z,27.54
2023-10-18T16:21:25.330Z,27.54
2023-10-18T16:23:53.195Z,27.54
2023-10-18T16:26:24.520Z,27.53
2023-10-18T16:28:51.722Z,27.52
2023-10-18T16:31:21.262Z,27.51
2023-10-18T16:33:50.129Z,27.51
2023-10-18T16:36:19.151Z,27.50
2023-10-18T16:38:48.245Z,27.49
2023-10-18T16:41:16.512Z,27.46
2023-10-18T16:43:44.476Z,27.46
2023-10-18T16:46:14.031Z,27.47
2023-10-18T16:48:42.727Z,27.43
2023-10-18T16:51:13.951Z,27.43
2023-10-18T16:53:42.589Z,27.40
2023-10-18T16:56:12.809Z,27.42
2023-10-18T16:58:40.140Z,27.39
2023-10-18T17:01:12.348Z,27.37
2023-10-18T17:03:41.852Z,27.34
2023-10-18T17:06:16.489Z,27.34
2023-10-18T17:08:44.253Z,27.28
2023-10-18T17:11:14.987Z,27.28
2023-10-18T17:13:48.559Z,27.28
2023-10-18T17:16:16.255Z,27.30
2023-10-18T17:18:44.425Z,27.29
2023-10-18T17:23:43.633Z,27.29
2023-10-18T17:26:10.798Z,27.32
2023-10-18T17:28:39.633Z,27.32
2023-10-18T17:31:06.811Z,27.33
2023-10-18T17:33:34.321Z,27.33
2023-10-18T17:36:02.048Z,27.36
2023-10-18T17:38:29.252Z,27.34
2023-10-18T17:40:56.454Z,27.38
2023-10-18T17:43:23.934Z,27.35
2023-10-18T17:45:52.099Z,27.36
2023-10-18T17:48:19.925Z,27.37
2023-10-18T17:50:48.000Z,27.37
2023-10-18T17:53:15.732Z,27.38
2023-10-18T17:55:44.840Z,27.36
2023-10-18T17:58:18.639Z,27.37
2023-10-18T18:00:54.007Z,27.38
2023-10-18T18:03:24.188Z,27.36
2023-10-18T18:05:51.637Z,27.37
2023-10-18T18:08:27.028Z,27.35
2023-10-18T18:10:55.310Z,27.33
2023-10-18T18:13:23.705Z,27.33
2023-10-18T18:15:51.554Z,27.32
2023-10-18T18:18:25.657Z,27.30
2023-10-18T18:20:54.207Z,27.29
2023-10-18T18:23:21.815Z,27.28
2023-10-18T18:25:49.113Z,27.28
2023-10-18T18:28:20.175Z,27.29
2023-10-18T18:30:49.015Z,27.29
2023-10-18T18:33:16.487Z,27.32
2023-10-18T18:35:44.947Z,27.33
2023-10-18T18:38:13.125Z,27.32
2023-10-18T18:40:40.190Z,27.31
2023-10-18T18:43:07.933Z,27.29
2023-10-18T18:45:35.156Z,27.26
2023-10-18T18:48:02.637Z,27.21
2023-10-18T18:50:29.853Z,27.21
2023-10-18T18:52:56.915Z,27.20
2023-10-18T18:55:23.902Z,27.16
2023-10-18T18:57:51.993Z,27.17
2023-10-18T19:00:21.664Z,27.19
2023-10-18T19:02:51.370Z,27.19
2023-10-18T19:05:19.931Z,27.20
2023-10-18T19:07:47.638Z,27.22
2023-10-18T19:10:16.434Z,27.22
2023-10-18T19:12:45.254Z,27.23
2023-10-18T19:15:12.658Z,27.23
2023-10-18T19:17:42.808Z,27.24
2023-10-18T19:20:10.198Z,27.24
2023-10-18T19:22:37.412Z,27.25
2023-10-18T19:25:07.597Z,27.26
2023-10-18T19:27:35.732Z,27.26
2023-10-18T19:30:10.495Z,27.25
2023-10-18T19:32:41.619Z,27.25
2023-10-18T19:35:12.494Z,27.24
2023-10-18T19:37:41.246Z,27.22
2023-10-18T19:40:13.607Z,27.17
2023-10-18T19:42:41.974Z,27.17
2023-10-18T19:45:10.391Z,27.15
2023-10-18T19:47:38.262Z,27.14
2023-10-18T19:50:07.886Z,27.12
2023-10-18T19:52:35.375Z,27.12
2023-10-18T19:55:02.692Z,27.09
2023-10-18T19:57:32.480Z,27.08
2023-10-18T20:00:00.299Z,27.07
2023-10-18T20:02:27.605Z,27.04
2023-10-18T20:04:54.745Z,27.01
2023-10-18T20:07:21.813Z,27.00
2023-10-18T20:09:48.889Z,26.97
2023-10-18T20:12:15.969Z,26.96
2023-10-18T20:14:43.061Z,26.95
2023-10-18T20:17:15.106Z,26.93
2023-10-18T20:19:42.369Z,26.92
2023-10-18T20:22:09.340Z,26.91
2023-10-18T20:24:36.504Z,26.88
2023-10-18T20:27:04.964Z,26.85
2023-10-18T20:29:32.330Z,26.85
2023-10-18T20:32:04.325Z,26.83
2023-10-18T20:34:32.881Z,26.83
2023-10-18T20:36:59.894Z,26.80
2023-10-18T20:39:30.744Z,26.77
2023-10-18T20:42:05.615Z,26.73
2023-10-18T20:44:32.835Z,26.70
2023-10-18T20:47:05.521Z,26.66
2023-10-18T20:49:34.097Z,26.67
2023-10-18T20:52:01.637Z,26.65
2023-10-18T20:54:34.520Z,26.63
2023-10-18T20:57:12.319Z,26.61
2023-10-18T20:59:44.567Z,26.59
2023-10-18T21:02:16.585Z,26.57
2023-10-18T21:04:46.337Z,26.56
2023-10-18T21:07:17.151Z,26.54
2023-10-18T21:09:45.244Z,26.52
2023-10-18T21:12:17.681Z,26.52
2023-10-18T21:14:48.017Z,26.50
2023-10-18T21:17:16.165Z,26.48
2023-10-18T21:19:44.650Z,26.47
2023-10-18T21:22:12.076Z,26.46
2023-10-18T21:24:39.115Z,26.45
2023-10-18T21:27:09.150Z,26.43
2023-10-18T21:29:37.378Z,26.42
2023-10-18T21:32:06.910Z,26.41
2023-10-18T21:34:34.327Z,26.38
2023-10-18T21:37:02.528Z,26.36
2023-10-18T21:39:29.818Z,26.35
2023-10-18T21:41:56.886Z,26.35
2023-10-18T21:44:24.914Z,26.34
2023-10-18T21:46:52.006Z,26.33
2023-10-18T21:49:19.323Z,26.32
2023-10-18T21:51:46.742Z,26.33
2023-10-18T21:54:14.105Z,26.33
2023-10-18T21:56:42.663Z,26.31
2023-10-18T21:59:12.863Z,26.31
2023-10-18T22:01:43.463Z,26.29
2023-10-18T22:04:11.017Z,26.29
2023-10-18T22:06:39.972Z,26.27
2023-10-18T22:09:26.104Z,26.26
2023-10-18T22:11:54.282Z,26.25
2023-10-18T22:14:22.223Z,26.25
2023-10-18T22:16:58.440Z,26.24
2023-10-18T22:19:31.888Z,26.23
2023-10-18T22:22:13.122Z,26.22
2023-10-18T22:24:41.160Z,26.20
2023-10-18T22:27:16.461Z,26.19
2023-10-18T22:29:48.938Z,26.18
2023-10-18T22:32:20.162Z,26.17
2023-10-18T22:34:52.085Z,26.14
2023-10-18T22:37:23.869Z,26.13
2023-10-18T22:39:52.390Z,26.10
2023-10-18T22:42:31.167Z,26.11
2023-10-18T22:45:24.968Z,26.05
2023-10-18T22:47:53.209Z,26.04
2023-10-18T22:50:39.299Z,26.02
2023-10-18T22:53:12.837Z,25.99
2023-10-18T22:55:40.435Z,25.97
2023-10-18T22:58:17.291Z,25.93
2023-10-18T23:00:46.701Z,25.90
2023-10-18T23:03:15.752Z,25.89
2023-10-18T23:05:43.077Z,25.88
2023-10-18T23:08:22.144Z,25.83
2023-10-18T23:10:50.222Z,25.82
2023-10-18T23:13:33.708Z,25.78
2023-10-18T23:16:02.517Z,25.75
2023-10-18T23:18:50.767Z,25.72
2023-10-18T23:21:23.913Z,25.68
2023-10-18T23:24:06.242Z,25.65
2023-10-18T23:26:52.058Z,25.64
2023-10-18T23:29:19.165Z,25.60
2023-10-18T23:31:53.038Z,25.60
2023-10-18T23:34:26.371Z,25.60
2023-10-18T23:37:02.553Z,25.61
2023-10-18T23:39:38.916Z,25.59
2023-10-18T23:42:16.137Z,25.60
2023-10-18T23:44:57.060Z,25.63
2023-10-18T23:47:40.751Z,25.63
2023-10-18T23:50:32.667Z,25.61
2023-10-18T23:53:19.697Z,25.59
2023-10-18T23:55:58.319Z,25.58
2023-10-18T23:58:30.678Z,25.59
